Time;durP1;ratioP1;P1;durP2;ratioP2;P2;SDS_P1;SDS_P2;PMS_P1;PMS_P2;Temp;Humidity;BMP_temperature;BMP_pressure;BME280_temperature;BME280_humidity;BME280_pressure;Samples;Min_cycle;Max_cycle;Signal;HPM_P1;HPM_P2
2021/06/28 00:01:25;;;;;;;5.53;3.53;;;20.30;78.00;;;;;;5073684;28;20080;-90
2021/06/28 00:03:50;;;;;;;6.03;3.20;;;20.30;77.80;;;;;;5072294;28;20530;-91
2021/06/28 00:06:16;;;;;;;5.70;3.30;;;20.20;77.80;;;;;;5073412;28;20044;-88
2021/06/28 00:08:42;;;;;;;5.88;3.38;;;20.20;77.60;;;;;;5074085;28;20432;-88
2021/06/28 00:11:09;;;;;;;4.75;3.10;;;20.10;77.50;;;;;;5072951;28;20060;-91
2021/06/28 00:13:38;;;;;;;5.57;3.30;;;20.20;77.60;;;;;;5074247;28;20558;-91
2021/06/28 00:16:04;;;;;;;7.00;3.97;;;20.10;77.50;;;;;;5074377;28;20056;-90
2021/06/28 00:18:31;;;;;;;6.18;3.40;;;20.00;77.10;;;;;;5073364;28;20523;-90
2021/06/28 00:20:57;;;;;;;5.53;3.83;;;20.00;76.80;;;;;;5073790;28;20492;-90
2021/06/28 00:23:23;;;;;;;4.93;3.30;;;20.00;77.70;;;;;;5073567;28;20131;-88
2021/06/28 00:25:49;;;;;;;7.82;3.60;;;20.00;77.80;;;;;;5073262;28;20462;-89
2021/06/28 00:28:14;;;;;;;6.20;3.28;;;19.90;77.60;;;;;;5075186;28;20074;-89
2021/06/28 00:30:42;;;;;;;5.65;3.50;;;19.90;77.70;;;;;;5079409;28;20564;-90
2021/06/28 00:33:13;;;;;;;7.20;3.70;;;19.80;77.50;;;;;;5079272;28;20097;-90
2021/06/28 00:35:40;;;;;;;6.07;3.70;;;19.80;77.80;;;;;;5082111;28;20488;-90
2021/06/28 00:38:06;;;;;;;5.40;3.50;;;19.70;78.10;;;;;;5075467;28;20080;-90
2021/06/28 00:40:33;;;;;;;7.65;3.50;;;19.80;78.30;;;;;;5073592;28;20047;-89
2021/06/28 00:42:59;;;;;;;6.60;3.60;;;19.70;78.00;;;;;;5073806;28;20503;-89
2021/06/28 00:45:31;;;;;;;5.20;3.22;;;19.70;78.50;;;;;;5073205;28;20052;-89
2021/06/28 00:47:59;;;;;;;5.95;3.33;;;19.70;79.00;;;;;;5073266;28;20056;-89
2021/06/28 00:50:27;;;;;;;5.82;3.30;;;19.60;79.20;;;;;;5073342;28;20048;-91
2021/06/28 00:52:57;;;;;;;5.68;3.13;;;19.60;79.30;;;;;;5073146;28;20057;-91
2021/06/28 00:55:23;;;;;;;5.20;3.10;;;19.60;79.10;;;;;;5073594;28;20071;-90
2021/06/28 00:57:48;;;;;;;6.38;3.42;;;19.60;79.80;;;;;;5073001;28;20504;-92
2021/06/28 01:00:15;;;;;;;5.65;3.40;;;19.50;79.20;;;;;;5072742;28;20064;-90
2021/06/28 01:02:41;;;;;;;5.18;3.28;;;19.50;79.50;;;;;;5073279;28;20044;-91
2021/06/28 01:05:14;;;;;;;6.93;3.60;;;19.50;79.10;;;;;;5072962;28;20059;-89
2021/06/28 01:07:41;;;;;;;6.00;3.58;;;19.50;78.70;;;;;;5052495;28;20053;-90
2021/06/28 01:10:09;;;;;;;6.78;3.50;;;19.50;79.10;;;;;;5053388;28;20049;-89
2021/06/28 01:12:34;;;;;;;6.00;3.30;;;19.50;79.40;;;;;;5053399;28;20094;-91
2021/06/28 01:15:02;;;;;;;6.13;3.60;;;19.40;78.90;;;;;;5053762;28;20049;-90
2021/06/28 01:17:29;;;;;;;7.10;3.17;;;19.40;79.50;;;;;;5073128;28;20045;-91
2021/06/28 01:20:04;;;;;;;6.57;3.30;;;19.40;79.40;;;;;;5073284;28;20123;-88
2021/06/28 01:22:33;;;;;;;7.47;3.33;;;19.40;79.60;;;;;;5072212;28;20059;-89
2021/06/28 01:24:59;;;;;;;8.57;3.40;;;19.30;79.30;;;;;;5073227;28;20045;-89
2021/06/28 01:27:28;;;;;;;6.03;3.15;;;19.30;79.20;;;;;;5071885;28;20052;-89
2021/06/28 01:29:54;;;;;;;7.03;3.40;;;19.30;79.40;;;;;;5072423;28;20503;-89
2021/06/28 01:32:21;;;;;;;7.90;3.88;;;19.20;79.70;;;;;;5072907;28;20488;-89
2021/06/28 01:34:47;;;;;;;6.57;3.72;;;19.20;80.00;;;;;;5072239;28;20538;-87
2021/06/28 01:37:19;;;;;;;5.68;3.08;;;19.20;79.70;;;;;;5072048;28;20048;-88
2021/06/28 01:39:46;;;;;;;7.45;3.33;;;19.20;79.70;;;;;;5072763;28;20045;-87
2021/06/28 01:42:11;;;;;;;6.55;3.10;;;19.10;79.60;;;;;;5072008;28;20123;-89
2021/06/28 01:44:37;;;;;;;6.93;3.17;;;19.10;79.90;;;;;;5072664;28;20141;-90
2021/06/28 01:47:03;;;;;;;6.28;3.15;;;19.10;79.80;;;;;;5072301;28;20523;-89
2021/06/28 01:49:29;;;;;;;5.97;3.30;;;19.00;79.90;;;;;;5072187;28;20146;-91
2021/06/28 01:51:55;;;;;;;4.88;3.10;;;19.00;79.70;;;;;;5072514;28;20503;-90
2021/06/28 01:54:20;;;;;;;5.97;3.85;;;18.90;78.70;;;;;;5072503;28;20041;-89
2021/06/28 01:56:46;;;;;;;6.40;3.60;;;18.90;79.30;;;;;;5071533;28;20052;-90
2021/06/28 01:59:12;;;;;;;8.60;3.70;;;18.90;80.10;;;;;;5072862;28;20056;-90
2021/06/28 02:01:38;;;;;;;6.32;3.67;;;18.90;80.30;;;;;;5072160;28;20048;-90
2021/06/28 02:04:04;;;;;;;6.78;3.50;;;18.80;80.00;;;;;;5072074;28;20041;-89
2021/06/28 02:06:30;;;;;;;5.30;3.45;;;18.80;80.40;;;;;;5072205;28;20504;-91
2021/06/28 02:08:55;;;;;;;6.20;3.60;;;18.80;80.70;;;;;;5072481;28;20066;-89
2021/06/28 02:11:21;;;;;;;6.00;3.60;;;18.80;80.60;;;;;;5075626;28;20095;-91
2021/06/28 02:13:47;;;;;;;5.40;3.20;;;18.80;80.80;;;;;;5076949;28;20049;-91
2021/06/28 02:16:14;;;;;;;7.50;3.60;;;18.80;81.00;;;;;;5076908;28;20072;-90
2021/06/28 02:18:40;;;;;;;6.65;3.25;;;18.70;81.10;;;;;;5076016;28;20493;-90
2021/06/28 02:21:07;;;;;;;7.05;3.83;;;18.80;81.20;;;;;;5076285;28;20470;-90
2021/06/28 02:23:38;;;;;;;6.10;3.72;;;18.80;80.50;;;;;;5075753;28;20469;-88
2021/06/28 02:26:09;;;;;;;6.28;3.58;;;18.70;80.70;;;;;;5076705;28;20412;-91
2021/06/28 02:28:41;;;;;;;6.53;3.88;;;18.70;80.40;;;;;;5076213;28;20052;-91
2021/06/28 02:31:08;;;;;;;5.55;3.53;;;18.70;80.90;;;;;;5076208;28;20109;-90
2021/06/28 02:33:36;;;;;;;7.13;3.60;;;18.70;81.20;;;;;;5075933;28;20147;-90
2021/06/28 02:36:02;;;;;;;6.78;3.88;;;18.70;80.90;;;;;;5076590;28;20041;-90
2021/06/28 02:38:28;;;;;;;5.82;3.45;;;18.60;80.70;;;;;;5075920;28;20045;-91
2021/06/28 02:40:54;;;;;;;6.68;4.00;;;18.60;80.50;;;;;;5076324;28;20067;-91
2021/06/28 02:43:20;;;;;;;7.30;4.18;;;18.60;80.80;;;;;;5076327;28;20049;-91
2021/06/28 02:45:46;;;;;;;6.35;3.63;;;18.60;80.90;;;;;;5075539;28;20052;-90
2021/06/28 02:48:12;;;;;;;6.47;3.88;;;18.60;81.00;;;;;;5075574;28;20083;-90
2021/06/28 02:50:38;;;;;;;5.65;3.70;;;18.50;80.80;;;;;;5076065;28;20055;-90
2021/06/28 02:53:04;;;;;;;6.82;3.70;;;18.50;80.80;;;;;;5075490;28;20083;-90
2021/06/28 02:55:30;;;;;;;6.43;3.47;;;18.50;80.90;;;;;;5075159;28;20484;-90
2021/06/28 02:57:57;;;;;;;6.65;3.67;;;18.50;81.10;;;;;;5075729;28;20063;-89
2021/06/28 03:00:23;;;;;;;6.18;4.07;;;18.40;81.20;;;;;;5074717;28;20049;-91
2021/06/28 03:02:48;;;;;;;6.30;3.80;;;18.40;81.10;;;;;;5075755;28;20434;-90
2021/06/28 03:05:14;;;;;;;5.93;3.85;;;18.40;81.00;;;;;;5075791;28;20139;-91
2021/06/28 03:07:40;;;;;;;6.88;4.10;;;18.40;80.80;;;;;;5074988;28;20537;-90
2021/06/28 03:10:09;;;;;;;6.32;3.90;;;18.40;81.20;;;;;;5075103;28;20049;-89
2021/06/28 03:12:35;;;;;;;7.13;4.20;;;18.40;81.50;;;;;;5056021;28;20056;-91
2021/06/28 03:15:02;;;;;;;7.78;4.00;;;18.40;81.50;;;;;;5074631;28;20138;-91
2021/06/28 03:17:30;;;;;;;8.23;4.45;;;18.30;81.00;;;;;;5075077;28;20055;-90
2021/06/28 03:19:56;;;;;;;7.15;4.22;;;18.30;81.70;;;;;;5056925;28;20442;-89
2021/06/28 03:22:21;;;;;;;6.00;4.13;;;18.30;81.50;;;;;;5074540;28;20059;-89
2021/06/28 03:24:47;;;;;;;8.68;4.10;;;18.30;81.80;;;;;;5075482;28;20052;-91
2021/06/28 03:27:13;;;;;;;7.03;3.92;;;18.30;82.10;;;;;;5056197;28;20052;-90
2021/06/28 03:29:39;;;;;;;6.35;3.92;;;18.30;82.00;;;;;;5074893;28;20082;-90
2021/06/28 03:32:05;;;;;;;5.53;3.72;;;18.30;82.30;;;;;;5075587;28;20084;-89
2021/06/28 03:34:30;;;;;;;7.07;3.88;;;18.30;82.10;;;;;;5074218;28;20044;-90
2021/06/28 03:36:56;;;;;;;8.70;4.80;;;18.30;82.00;;;;;;5075459;28;20056;-88
2021/06/28 03:39:21;;;;;;;7.20;3.88;;;18.30;82.00;;;;;;5075385;28;20044;-91
2021/06/28 03:41:47;;;;;;;6.97;3.67;;;18.30;82.20;;;;;;5074296;28;20076;-89
2021/06/28 03:44:13;;;;;;;6.55;3.92;;;18.30;82.20;;;;;;5075183;28;20048;-91
2021/06/28 03:46:39;;;;;;;6.28;4.40;;;18.30;82.20;;;;;;5074303;28;20833;-90
2021/06/28 03:49:04;;;;;;;6.57;4.43;;;18.20;82.00;;;;;;5074803;28;20094;-88
2021/06/28 03:51:30;;;;;;;7.03;3.95;;;18.20;82.00;;;;;;5075527;28;20124;-92
2021/06/28 03:53:56;;;;;;;7.00;4.18;;;18.20;81.90;;;;;;5075756;28;20060;-91
2021/06/28 03:56:22;;;;;;;6.25;3.95;;;18.20;82.00;;;;;;5075283;28;20045;-92
2021/06/28 03:58:48;;;;;;;7.45;4.03;;;18.20;81.90;;;;;;5075116;28;20095;-91
2021/06/28 04:01:13;;;;;;;6.70;3.95;;;18.20;81.50;;;;;;5075013;28;20168;-90
2021/06/28 04:03:39;;;;;;;7.05;4.22;;;18.20;81.70;;;;;;5074358;28;20389;-90
2021/06/28 04:06:07;;;;;;;6.20;4.18;;;18.20;81.70;;;;;;5075067;28;20068;-92
2021/06/28 04:08:35;;;;;;;5.90;4.00;;;18.20;81.60;;;;;;5074571;28;20408;-90
2021/06/28 04:11:01;;;;;;;7.85;4.53;;;18.20;81.60;;;;;;5074249;28;20158;-91
2021/06/28 04:13:27;;;;;;;8.13;4.18;;;18.10;81.70;;;;;;5074631;28;20081;-89
2021/06/28 04:15:53;;;;;;;7.30;4.75;;;18.10;81.90;;;;;;5074411;28;20047;-90
2021/06/28 04:18:20;;;;;;;6.90;4.30;;;18.10;81.70;;;;;;5073953;28;20049;-91
2021/06/28 04:20:45;;;;;;;8.30;4.43;;;18.10;81.80;;;;;;5074419;28;20052;-90
2021/06/28 04:23:11;;;;;;;6.07;3.80;;;18.10;81.60;;;;;;5073831;28;20139;-90
2021/06/28 04:25:37;;;;;;;7.25;4.40;;;18.10;81.80;;;;;;5073700;28;20051;-90
2021/06/28 04:28:04;;;;;;;6.13;3.85;;;18.10;82.30;;;;;;5074235;28;20048;-90
2021/06/28 04:30:30;;;;;;;7.57;4.25;;;18.10;82.40;;;;;;5073422;28;20464;-89
2021/06/28 04:32:56;;;;;;;6.72;4.30;;;18.10;82.40;;;;;;5074232;28;20048;-89
2021/06/28 04:35:26;;;;;;;7.25;4.22;;;18.10;82.40;;;;;;5073885;28;20052;-90
2021/06/28 04:37:54;;;;;;;6.22;4.18;;;18.10;82.10;;;;;;5073848;28;20041;-87
2021/06/28 04:40:22;;;;;;;6.50;4.03;;;18.10;82.30;;;;;;5074256;28;20055;-90
2021/06/28 04:42:49;;;;;;;6.80;4.00;;;18.10;82.50;;;;;;5073563;28;20040;-89
2021/06/28 04:45:16;;;;;;;6.32;4.05;;;18.10;82.30;;;;;;5073018;28;20408;-88
2021/06/28 04:47:42;;;;;;;6.40;4.00;;;18.10;82.50;;;;;;5072540;28;20772;-89
2021/06/28 04:50:09;;;;;;;7.43;4.55;;;18.10;82.80;;;;;;5073572;28;20061;-89
2021/06/28 04:52:40;;;;;;;6.32;4.07;;;18.10;82.90;;;;;;5072972;28;20154;-90
2021/06/28 04:55:08;;;;;;;7.00;4.47;;;18.10;82.60;;;;;;5074099;28;20063;-90
2021/06/28 04:57:34;;;;;;;6.65;4.22;;;18.10;82.90;;;;;;5075792;28;20491;-91
2021/06/28 05:00:00;;;;;;;7.82;4.68;;;18.10;82.50;;;;;;5077686;28;20052;-89
2021/06/28 05:02:26;;;;;;;5.75;3.83;;;18.10;82.80;;;;;;5077023;28;20052;-90
2021/06/28 05:04:52;;;;;;;7.32;3.97;;;18.10;82.30;;;;;;5083449;28;20086;-91
2021/06/28 05:07:18;;;;;;;7.15;4.78;;;18.10;81.90;;;;;;5093063;28;20150;-89
2021/06/28 05:09:44;;;;;;;6.15;3.88;;;18.10;82.10;;;;;;5093099;28;20522;-89
2021/06/28 05:12:11;;;;;;;6.88;4.10;;;18.10;82.60;;;;;;5065209;28;20051;-88
2021/06/28 05:14:38;;;;;;;6.72;4.22;;;18.10;82.90;;;;;;5072557;28;20051;-89
2021/06/28 05:17:04;;;;;;;6.53;4.43;;;18.10;82.90;;;;;;5072849;28;20515;-90
2021/06/28 05:19:30;;;;;;;6.68;4.00;;;18.10;83.90;;;;;;5072017;28;20102;-91
2021/06/28 05:21:56;;;;;;;7.95;4.75;;;18.10;82.90;;;;;;5072991;28;20060;-90
2021/06/28 05:24:22;;;;;;;7.10;3.88;;;18.10;82.80;;;;;;5073111;28;20044;-90
2021/06/28 05:26:48;;;;;;;6.57;4.15;;;18.10;82.50;;;;;;5072342;28;20405;-91
2021/06/28 05:29:14;;;;;;;7.53;4.07;;;18.10;82.70;;;;;;5072308;28;20091;-90
2021/06/28 05:31:40;;;;;;;7.25;4.78;;;18.10;82.90;;;;;;5073190;28;20094;-90
2021/06/28 05:34:06;;;;;;;7.82;4.50;;;18.10;83.00;;;;;;5072350;28;20492;-90
2021/06/28 05:36:33;;;;;;;9.00;4.47;;;18.10;82.90;;;;;;5072616;28;20052;-90
2021/06/28 05:38:58;;;;;;;6.68;4.20;;;18.10;83.50;;;;;;5073120;28;20051;-92
2021/06/28 05:41:24;;;;;;;6.90;4.13;;;18.10;82.20;;;;;;5072132;28;20036;-93
2021/06/28 05:43:50;;;;;;;6.03;4.00;;;18.10;82.40;;;;;;5076207;28;20074;-93
2021/06/28 05:46:16;;;;;;;7.95;4.88;;;18.10;82.70;;;;;;5074684;28;20488;-92
2021/06/28 05:48:42;;;;;;;6.10;4.10;;;18.10;82.60;;;;;;5075247;28;20056;-94
2021/06/28 05:51:08;;;;;;;7.65;4.35;;;18.10;82.90;;;;;;5073821;28;20533;-93
2021/06/28 05:53:33;;;;;;;5.47;3.85;;;18.10;83.00;;;;;;5074294;28;20439;-84
2021/06/28 05:56:01;;;;;;;8.98;4.82;;;18.10;82.70;;;;;;5070797;28;20048;-84
2021/06/28 05:58:29;;;;;;;8.05;4.95;;;18.10;82.90;;;;;;5072484;28;20048;-84
2021/06/28 06:00:56;;;;;;;6.45;4.00;;;18.10;82.90;;;;;;5072279;28;20094;-84
2021/06/28 06:03:22;;;;;;;7.05;4.70;;;18.10;83.10;;;;;;5071900;28;20488;-84
2021/06/28 06:05:48;;;;;;;6.53;4.18;;;18.20;83.10;;;;;;5085639;28;20044;-93
2021/06/28 06:08:14;;;;;;;6.43;4.15;;;18.20;83.00;;;;;;5080718;28;20101;-90
2021/06/28 06:10:40;;;;;;;6.75;4.43;;;18.20;82.80;;;;;;5072534;28;20044;-91
2021/06/28 06:13:07;;;;;;;6.43;4.47;;;18.20;83.00;;;;;;5058749;28;20129;-91
2021/06/28 06:15:32;;;;;;;6.15;4.18;;;18.20;83.20;;;;;;5052734;28;20041;-91
2021/06/28 06:17:58;;;;;;;7.53;4.10;;;18.20;82.90;;;;;;5071632;28;20190;-88
2021/06/28 06:20:24;;;;;;;6.10;4.05;;;18.20;82.90;;;;;;5073115;28;20484;-89
2021/06/28 06:22:52;;;;;;;7.70;4.65;;;18.30;83.20;;;;;;5071881;28;20048;-89
2021/06/28 06:25:18;;;;;;;6.63;4.70;;;18.30;83.40;;;;;;5072363;28;20553;-87
2021/06/28 06:27:43;;;;;;;7.40;4.60;;;18.30;83.40;;;;;;5072157;28;20048;-88
2021/06/28 06:30:11;;;;;;;7.28;4.22;;;18.30;83.30;;;;;;5071832;28;20045;-89
2021/06/28 06:32:36;;;;;;;7.45;4.90;;;18.30;83.00;;;;;;5071879;28;20052;-88
2021/06/28 06:35:04;;;;;;;7.82;4.85;;;18.40;83.30;;;;;;5071944;28;20055;-89
2021/06/28 06:37:31;;;;;;;6.93;5.03;;;18.40;83.20;;;;;;5070536;28;20540;-89
2021/06/28 06:39:57;;;;;;;9.27;5.10;;;18.40;83.10;;;;;;5072526;28;20080;-90
2021/06/28 06:42:22;;;;;;;8.25;5.65;;;18.50;83.40;;;;;;5072069;28;20083;-88
2021/06/28 06:44:48;;;;;;;7.65;5.60;;;18.50;83.90;;;;;;5071469;28;20094;-87
2021/06/28 06:47:14;;;;;;;6.35;4.60;;;18.60;83.70;;;;;;5072121;28;20060;-90
2021/06/28 06:49:39;;;;;;;7.38;5.20;;;18.70;83.30;;;;;;5071601;28;20045;-88
2021/06/28 06:52:06;;;;;;;10.10;5.25;;;18.70;83.50;;;;;;5071399;28;20060;-90
2021/06/28 06:54:31;;;;;;;11.75;5.50;;;18.80;83.20;;;;;;5071730;28;20040;-89
2021/06/28 06:56:57;;;;;;;7.15;5.40;;;18.90;83.50;;;;;;5074578;28;20059;-88
2021/06/28 06:59:22;;;;;;;7.78;5.18;;;18.90;83.30;;;;;;5074170;28;20047;-89
2021/06/28 07:01:50;;;;;;;8.52;5.82;;;19.00;83.00;;;;;;5075426;28;20064;-90
2021/06/28 07:04:15;;;;;;;6.70;4.22;;;19.10;83.60;;;;;;5073443;28;20125;-89
2021/06/28 07:06:42;;;;;;;6.30;4.47;;;19.10;82.80;;;;;;5072051;28;20062;-89
2021/06/28 07:09:07;;;;;;;5.68;4.28;;;19.20;82.40;;;;;;5072077;28;20056;-89
2021/06/28 07:11:33;;;;;;;10.00;5.80;;;19.30;82.20;;;;;;5074146;28;20404;-89
2021/06/28 07:13:59;;;;;;;8.00;5.20;;;19.30;82.40;;;;;;5074147;28;20159;-91
2021/06/28 07:16:30;;;;;;;6.72;4.95;;;19.40;83.00;;;;;;5073999;28;20189;-88
2021/06/28 07:18:58;;;;;;;6.32;4.63;;;19.40;82.20;;;;;;5075528;28;20065;-88
2021/06/28 07:21:24;;;;;;;8.30;5.90;;;19.60;82.00;;;;;;5075232;28;20075;-89
2021/06/28 07:23:52;;;;;;;7.47;4.80;;;19.70;82.70;;;;;;5075503;28;20051;-88
2021/06/28 07:26:24;;;;;;;7.00;4.53;;;19.80;82.20;;;;;;5074248;28;20044;-88
2021/06/28 07:28:50;;;;;;;7.57;4.72;;;19.90;81.90;;;;;;5075093;28;20510;-88
2021/06/28 07:31:15;;;;;;;11.13;5.85;;;20.00;81.70;;;;;;5075018;28;20041;-90
2021/06/28 07:33:42;;;;;;;8.60;6.00;;;20.10;82.10;;;;;;5074118;28;20053;-90
2021/06/28 07:36:09;;;;;;;8.07;5.78;;;20.20;82.60;;;;;;5074770;28;20051;-89
2021/06/28 07:38:35;;;;;;;11.43;5.68;;;20.30;82.90;;;;;;5074302;28;20067;-90
2021/06/28 07:41:06;;;;;;;7.05;4.57;;;20.40;82.50;;;;;;5074535;28;20404;-87
2021/06/28 07:43:34;;;;;;;6.80;4.40;;;20.50;81.70;;;;;;5074798;28;20053;-88
2021/06/28 07:46:00;;;;;;;8.25;4.97;;;20.60;81.20;;;;;;5074613;28;20405;-90
2021/06/28 07:48:25;;;;;;;8.45;5.28;;;20.70;81.50;;;;;;5073625;28;20048;-89
2021/06/28 07:50:52;;;;;;;6.13;4.43;;;20.90;81.60;;;;;;5071907;28;20051;-89
2021/06/28 07:53:18;;;;;;;10.40;6.35;;;20.90;80.70;;;;;;5072242;28;20456;-91
2021/06/28 07:55:45;;;;;;;7.35;5.60;;;21.10;82.00;;;;;;5073930;28;20072;-89
2021/06/28 07:58:11;;;;;;;7.05;4.45;;;21.20;83.10;;;;;;5074168;28;20450;-90
2021/06/28 08:00:37;;;;;;;10.80;6.03;;;21.30;81.50;;;;;;5074664;28;20048;-89
2021/06/28 08:03:06;;;;;;;7.50;4.95;;;21.40;80.80;;;;;;5074012;28;20060;-90
2021/06/28 08:05:32;;;;;;;9.75;5.20;;;21.50;80.30;;;;;;5074216;28;20385;-88
2021/06/28 08:07:58;;;;;;;6.20;4.25;;;21.50;80.10;;;;;;5074094;28;20069;-88
2021/06/28 08:10:24;;;;;;;8.00;5.20;;;21.60;79.70;;;;;;5073097;28;20118;-90
2021/06/28 08:12:51;;;;;;;10.73;5.80;;;21.70;80.10;;;;;;5074204;28;20052;-87
2021/06/28 08:15:20;;;;;;;8.40;5.65;;;21.70;80.10;;;;;;5072801;28;20132;-88
2021/06/28 08:17:48;;;;;;;7.32;5.10;;;21.80;80.20;;;;;;5073421;28;20492;-89
2021/06/28 08:20:14;;;;;;;6.72;4.70;;;21.90;79.80;;;;;;5073837;28;20053;-88
2021/06/28 08:22:41;;;;;;;6.47;4.70;;;22.00;79.60;;;;;;5073053;28;20048;-88
2021/06/28 08:25:08;;;;;;;7.10;4.88;;;22.00;79.50;;;;;;5072001;28;20404;-87
2021/06/28 08:27:34;;;;;;;6.68;3.97;;;22.10;79.60;;;;;;5071141;28;20052;-87
2021/06/28 08:30:00;;;;;;;7.90;4.80;;;22.20;79.40;;;;;;5071458;28;20044;-88
2021/06/28 08:32:26;;;;;;;7.32;5.10;;;22.30;79.40;;;;;;5073838;28;20045;-89
2021/06/28 08:34:55;;;;;;;8.38;5.53;;;22.40;79.30;;;;;;5074033;28;20045;-90
2021/06/28 08:37:22;;;;;;;7.75;5.28;;;22.50;79.20;;;;;;5073032;28;20049;-90
2021/06/28 08:39:48;;;;;;;6.50;4.93;;;22.60;79.40;;;;;;5073096;28;20083;-89
2021/06/28 08:42:17;;;;;;;10.77;5.28;;;22.60;79.00;;;;;;5073649;28;20102;-88
2021/06/28 08:44:46;;;;;;;7.28;5.03;;;22.70;78.80;;;;;;5072387;28;20044;-89
2021/06/28 08:47:12;;;;;;;6.63;5.00;;;22.80;78.80;;;;;;5073247;28;20056;-88
2021/06/28 08:49:40;;;;;;;9.40;5.72;;;22.90;78.90;;;;;;5073143;28;20071;-90
2021/06/28 08:52:07;;;;;;;7.22;5.30;;;23.00;79.60;;;;;;5072084;28;20500;-88
2021/06/28 08:54:32;;;;;;;6.35;4.70;;;23.10;79.20;;;;;;5073149;28;20052;-90
2021/06/28 08:56:59;;;;;;;7.07;4.15;;;23.20;78.90;;;;;;5072169;28;20064;-88
2021/06/28 08:59:25;;;;;;;7.28;4.57;;;23.30;78.70;;;;;;5070599;28;20048;-89
2021/06/28 09:01:51;;;;;;;8.57;4.88;;;23.40;78.90;;;;;;5071217;28;20072;-89
2021/06/28 09:04:17;;;;;;;5.75;4.20;;;23.50;78.50;;;;;;5073322;28;20056;-89
2021/06/28 09:06:44;;;;;;;8.00;4.82;;;23.60;78.40;;;;;;5072379;28;20175;-89
2021/06/28 09:09:12;;;;;;;6.57;4.65;;;23.70;77.60;;;;;;5073273;28;20440;-89
2021/06/28 09:11:43;;;;;;;6.03;4.63;;;23.80;78.10;;;;;;5071772;28;20049;-89
2021/06/28 09:14:10;;;;;;;8.48;4.93;;;23.90;77.90;;;;;;5071870;28;20412;-89
2021/06/28 09:16:37;;;;;;;9.88;5.38;;;24.00;77.30;;;;;;5071895;28;20047;-93
2021/06/28 09:19:06;;;;;;;11.10;5.80;;;24.10;77.20;;;;;;5072676;28;20408;-92
2021/06/28 09:21:40;;;;;;;6.80;4.80;;;24.20;76.60;;;;;;5072804;28;20049;-80
2021/06/28 09:24:26;;;;;;;6.72;4.72;;;24.30;76.40;;;;;;5073102;28;20106;-80
2021/06/28 09:26:54;;;;;;;6.80;4.28;;;24.40;75.40;;;;;;5071817;28;20110;-80
2021/06/28 09:29:34;;;;;;;7.13;5.43;;;24.50;76.10;;;;;;5068959;28;20048;-80
2021/06/28 09:32:12;;;;;;;8.70;5.50;;;24.60;75.20;;;;;;5072478;28;20045;-80
2021/06/28 09:34:39;;;;;;;7.85;5.05;;;24.60;74.60;;;;;;5071506;28;20087;-83
2021/06/28 09:37:12;;;;;;;14.48;6.25;;;24.70;75.50;;;;;;5072428;28;20114;-84
2021/06/28 09:39:42;;;;;;;;;;;24.80;75.10;;;;;;5070223;28;20468;-85
2021/06/28 09:42:07;;;;;;;7.78;5.30;;;24.80;74.90;;;;;;5071064;28;19982;-83
2021/06/28 09:44:39;;;;;;;9.38;6.45;;;24.90;74.60;;;;;;5064911;28;20472;-84
2021/06/28 09:47:14;;;;;;;8.93;6.35;;;25.00;74.80;;;;;;5070728;28;20523;-84
2021/06/28 09:49:58;;;;;;;8.27;6.13;;;25.10;74.80;;;;;;5068663;28;20584;-84
2021/06/28 09:52:28;;;;;;;7.85;6.28;;;25.10;74.20;;;;;;5071542;28;20049;-84
2021/06/28 09:54:54;;;;;;;9.20;5.90;;;25.20;74.60;;;;;;5069809;28;20119;-84
2021/06/28 09:57:20;;;;;;;8.75;5.70;;;25.30;73.80;;;;;;5070516;28;20551;-83
2021/06/28 09:59:46;;;;;;;9.98;5.95;;;25.40;73.20;;;;;;5070146;28;20152;-83
2021/06/28 10:02:26;;;;;;;7.97;6.00;;;25.50;73.70;;;;;;5066137;28;20055;-84
2021/06/28 10:05:30;;;;;;;9.23;6.43;;;25.60;73.70;;;;;;5066630;28;20052;-85
2021/06/28 10:07:46;;;;;;;12.82;6.50;;;25.70;73.70;;;;;;5063822;28;20098;-85
2021/06/28 10:10:16;;;;;;;10.45;5.72;;;25.70;72.60;;;;;;5067151;28;20119;-84
2021/06/28 10:12:51;;;;;;;10.38;5.45;;;25.80;71.90;;;;;;5069997;28;20053;-84
2021/06/28 10:15:22;;;;;;;9.63;5.40;;;25.80;71.30;;;;;;5067147;28;20044;-83
2021/06/28 10:17:48;;;;;;;7.03;5.80;;;25.90;70.90;;;;;;5070030;28;20044;-84
2021/06/28 10:20:17;;;;;;;9.60;5.70;;;26.00;70.90;;;;;;5069706;28;20081;-85
2021/06/28 10:22:44;;;;;;;9.02;6.22;;;26.10;72.00;;;;;;5070921;28;20109;-84
2021/06/28 10:25:11;;;;;;;8.05;6.05;;;26.20;72.00;;;;;;5071742;28;20041;-84
2021/06/28 10:27:37;;;;;;;8.65;5.47;;;26.30;72.30;;;;;;5070007;28;20087;-92
2021/06/28 10:30:08;;;;;;;8.52;5.13;;;26.40;71.90;;;;;;5068934;28;20128;-90
2021/06/28 10:32:39;;;;;;;6.90;4.85;;;26.50;71.40;;;;;;5075020;28;20068;-94
2021/06/28 10:35:07;;;;;;;7.72;5.40;;;26.60;70.50;;;;;;5075537;28;20040;-88
2021/06/28 10:37:46;;;;;;;6.80;4.88;;;26.70;70.70;;;;;;5073223;28;20044;-90
2021/06/28 10:40:22;;;;;;;7.22;4.93;;;26.80;70.70;;;;;;5075710;28;20047;-93
2021/06/28 10:42:55;;;;;;;8.20;5.68;;;26.90;70.70;;;;;;5073261;28;20052;-92
2021/06/28 10:45:38;;;;;;;10.00;5.47;;;26.90;71.40;;;;;;5073446;28;20055;-93
2021/06/28 10:48:08;;;;;;;9.90;5.45;;;27.00;69.70;;;;;;5076549;28;20056;-93
2021/06/28 10:50:57;;;;;;;10.90;5.40;;;27.00;70.00;;;;;;5075277;28;20048;-93
2021/06/28 10:53:32;;;;;;;10.65;5.80;;;27.10;69.40;;;;;;5070528;28;20040;-94
2021/06/28 10:56:25;;;;;;;9.63;5.97;;;27.10;70.20;;;;;;5077461;28;20474;-92
2021/06/28 10:58:55;;;;;;;8.18;5.03;;;27.20;70.20;;;;;;5073802;28;20102;-89
2021/06/28 11:01:37;;;;;;;6.90;5.20;;;27.20;69.20;;;;;;5075621;28;20052;-90
2021/06/28 11:04:11;;;;;;;8.70;5.47;;;27.20;67.30;;;;;;5071226;28;20397;-90
2021/06/28 11:06:56;;;;;;;6.43;4.50;;;27.20;67.80;;;;;;5074234;28;20052;-90
2021/06/28 11:09:35;;;;;;;7.30;5.85;;;27.30;68.40;;;;;;5074106;28;20154;-92
2021/06/28 11:12:02;;;;;;;8.00;5.25;;;27.40;69.40;;;;;;5075085;28;20068;-91
2021/06/28 11:14:27;;;;;;;9.45;6.07;;;27.50;69.80;;;;;;5075387;28;20044;-93
2021/06/28 11:17:39;;;;;;;9.50;5.70;;;27.60;69.80;;;;;;5076098;28;20048;-92
2021/06/28 11:20:16;;;;;;;6.75;4.95;;;27.70;69.80;;;;;;4974835;28;20067;-90
2021/06/28 11:22:51;;;;;;;7.03;4.22;;;27.80;68.10;;;;;;5070243;28;20063;-91
2021/06/28 11:25:23;;;;;;;7.28;5.30;;;27.80;67.40;;;;;;5075637;28;20068;-90
2021/06/28 11:27:57;;;;;;;6.50;4.85;;;27.90;68.20;;;;;;5075670;28;20049;-93
2021/06/28 11:30:30;;;;;;;6.57;5.00;;;27.90;68.50;;;;;;5073890;28;20059;-92
2021/06/28 11:33:05;;;;;;;8.13;5.40;;;28.00;67.30;;;;;;5075004;28;20048;-92
2021/06/28 11:35:45;;;;;;;7.65;4.72;;;28.20;68.20;;;;;;5075761;28;20098;-95
2021/06/28 11:38:28;;;;;;;6.25;4.57;;;28.20;67.70;;;;;;5053234;28;20040;-93
2021/06/28 11:41:12;;;;;;;6.25;4.80;;;28.20;67.70;;;;;;5075585;28;20502;-93
2021/06/28 11:43:56;;;;;;;5.88;4.72;;;28.30;67.10;;;;;;5074217;28;20139;-92
2021/06/28 11:46:31;;;;;;;6.15;4.03;;;28.40;65.90;;;;;;5058380;28;20097;-93
2021/06/28 11:49:07;;;;;;;6.13;4.50;;;28.40;62.60;;;;;;5074959;28;20503;-94
2021/06/28 11:51:43;;;;;;;7.30;3.90;;;28.40;63.60;;;;;;5073244;28;20115;-93
2021/06/28 11:54:11;;;;;;;7.57;4.25;;;28.40;63.00;;;;;;5072450;28;20505;-93
2021/06/28 11:56:49;;;;;;;5.68;3.70;;;28.50;64.50;;;;;;5073726;28;20044;-91
2021/06/28 11:59:17;;;;;;;6.85;3.72;;;28.60;63.60;;;;;;5073998;28;20045;-92
2021/06/28 12:01:47;;;;;;;7.82;4.20;;;28.60;62.80;;;;;;5075610;28;20048;-92
2021/06/28 12:04:21;;;;;;;6.18;4.35;;;28.60;63.70;;;;;;5058996;28;20074;-93
2021/06/28 12:06:49;;;;;;;5.97;4.43;;;28.70;64.60;;;;;;5075342;28;20049;-94
2021/06/28 12:09:19;;;;;;;6.55;4.93;;;28.80;64.90;;;;;;5052566;28;20061;-93
2021/06/28 12:11:50;;;;;;;7.82;4.53;;;28.90;64.00;;;;;;5069582;28;20049;-93
2021/06/28 12:14:40;;;;;;;5.50;4.50;;;29.00;63.60;;;;;;5071520;28;20181;-92
2021/06/28 12:17:27;;;;;;;5.65;4.20;;;29.00;63.40;;;;;;5070521;28;20049;-95
2021/06/28 12:20:03;;;;;;;5.97;4.20;;;29.00;63.30;;;;;;5069573;28;20053;-93
2021/06/28 12:22:31;;;;;;;7.90;4.75;;;29.10;62.80;;;;;;5075538;28;20047;-94
2021/06/28 12:25:00;;;;;;;7.30;3.75;;;29.20;62.80;;;;;;5075372;28;20512;-94
2021/06/28 12:27:31;;;;;;;5.38;4.03;;;29.20;60.20;;;;;;5065858;28;20381;-93
2021/06/28 12:29:59;;;;;;;7.93;4.32;;;29.10;61.20;;;;;;5074923;28;20071;-91
2021/06/28 12:32:30;;;;;;;5.45;4.53;;;29.20;62.40;;;;;;5074030;28;20044;-91
2021/06/28 12:35:02;;;;;;;11.20;4.72;;;29.20;62.90;;;;;;5074035;28;20097;-92
2021/06/28 12:37:32;;;;;;;8.93;4.53;;;29.20;63.20;;;;;;5074272;28;20131;-92
2021/06/28 12:40:24;;;;;;;8.30;4.60;;;29.20;63.50;;;;;;5073847;28;20106;-92
2021/06/28 12:42:53;;;;;;;8.00;4.73;;;29.20;63.70;;;;;;5067036;28;20100;-93
2021/06/28 12:45:22;;;;;;;7.45;4.25;;;29.20;63.40;;;;;;5074288;28;20556;-93
2021/06/28 12:47:50;;;;;;;7.22;4.50;;;29.30;61.80;;;;;;5073741;28;20114;-93
2021/06/28 12:50:20;;;;;;;6.65;4.80;;;29.30;63.30;;;;;;5073519;28;20048;-92
2021/06/28 12:52:47;;;;;;;7.45;4.75;;;29.30;63.50;;;;;;5073645;28;20079;-92